sensor_id;sensor_type;location;lat;lon;timestamp;pressure;altitude;pressure_sealevel;temperature;humidity
49030;BME280;43337;52.070;4.508;2022-09-09T00:01:57;100813.66;;;15.65;83.07
49030;BME280;43337;52.070;4.508;2022-09-09T00:04:33;100831.75;;;15.73;82.95
49030;BME280;43337;52.070;4.508;2022-09-09T00:10:17;100824.94;;;15.69;82.97
49030;BME280;43337;52.070;4.508;2022-09-09T00:15:56;100820.47;;;15.69;83.27
49030;BME280;43337;52.070;4.508;2022-09-09T00:21:14;100829.47;;;15.67;83.43
49030;BME280;43337;52.070;4.508;2022-09-09T00:23:54;100816.22;;;15.67;83.36
49030;BME280;43337;52.070;4.508;2022-09-09T00:26:38;100813.94;;;15.60;83.33
49030;BME280;43337;52.070;4.508;2022-09-09T00:31:38;100823.41;;;15.65;83.68
49030;BME280;43337;52.070;4.508;2022-09-09T00:34:16;100815.50;;;15.63;83.54
49030;BME280;43337;52.070;4.508;2022-09-09T00:36:45;100820.94;;;15.61;83.62
49030;BME280;43337;52.070;4.508;2022-09-09T00:39:46;100821.00;;;15.60;83.62
49030;BME280;43337;52.070;4.508;2022-09-09T00:42:24;100801.34;;;15.50;83.84
49030;BME280;43337;52.070;4.508;2022-09-09T00:45:01;100800.09;;;15.55;83.78
49030;BME280;43337;52.070;4.508;2022-09-09T00:50:41;100808.03;;;15.55;84.12
49030;BME280;43337;52.070;4.508;2022-09-09T00:58:14;100809.31;;;15.50;84.39
49030;BME280;43337;52.070;4.508;2022-09-09T01:01:03;100768.59;;;15.22;84.64
49030;BME280;43337;52.070;4.508;2022-09-09T01:03:35;100809.50;;;15.47;84.57
49030;BME280;43337;52.070;4.508;2022-09-09T01:06:20;100803.41;;;15.45;84.68
49030;BME280;43337;52.070;4.508;2022-09-09T01:11:48;100804.38;;;15.44;84.78
49030;BME280;43337;52.070;4.508;2022-09-09T01:17:13;100802.69;;;15.43;85.02
49030;BME280;43337;52.070;4.508;2022-09-09T01:20:04;100791.41;;;15.39;85.07
49030;BME280;43337;52.070;4.508;2022-09-09T01:25:21;100781.63;;;15.39;85.22
49030;BME280;43337;52.070;4.508;2022-09-09T01:27:52;100785.13;;;15.40;85.11
49030;BME280;43337;52.070;4.508;2022-09-09T01:30:20;100779.09;;;15.38;85.33
49030;BME280;43337;52.070;4.508;2022-09-09T01:32:49;100766.97;;;15.34;85.37
49030;BME280;43337;52.070;4.508;2022-09-09T01:38:02;100777.47;;;15.35;85.27
49030;BME280;43337;52.070;4.508;2022-09-09T01:40:28;100747.75;;;15.16;85.50
49030;BME280;43337;52.070;4.508;2022-09-09T01:42:54;100767.34;;;15.28;85.60
49030;BME280;43337;52.070;4.508;2022-09-09T01:45:19;100730.63;;;15.07;85.76
49030;BME280;43337;52.070;4.508;2022-09-09T01:47:46;100723.59;;;15.06;85.77
49030;BME280;43337;52.070;4.508;2022-09-09T01:50:15;100755.97;;;15.26;85.84
49030;BME280;43337;52.070;4.508;2022-09-09T01:52:42;100729.78;;;15.07;85.77
49030;BME280;43337;52.070;4.508;2022-09-09T01:55:09;100761.50;;;15.23;85.90
49030;BME280;43337;52.070;4.508;2022-09-09T02:00:19;100757.34;;;15.19;86.09
49030;BME280;43337;52.070;4.508;2022-09-09T02:03:05;100755.91;;;15.13;85.95
49030;BME280;43337;52.070;4.508;2022-09-09T02:05:45;100759.31;;;15.15;85.96
49030;BME280;43337;52.070;4.508;2022-09-09T02:08:20;100745.69;;;15.07;85.93
49030;BME280;43337;52.070;4.508;2022-09-09T02:10:58;100743.31;;;15.02;86.03
49030;BME280;43337;52.070;4.508;2022-09-09T02:13:25;100749.28;;;15.06;86.20
49030;BME280;43337;52.070;4.508;2022-09-09T02:16:13;100756.50;;;15.04;86.13
49030;BME280;43337;52.070;4.508;2022-09-09T02:19:01;100741.81;;;14.98;86.00
49030;BME280;43337;52.070;4.508;2022-09-09T02:21:30;100745.97;;;15.02;86.11
49030;BME280;43337;52.070;4.508;2022-09-09T02:23:59;100725.63;;;14.88;86.35
49030;BME280;43337;52.070;4.508;2022-09-09T02:26:26;100730.63;;;14.93;86.50
49030;BME280;43337;52.070;4.508;2022-09-09T02:28:54;100713.69;;;14.81;86.29
49030;BME280;43337;52.070;4.508;2022-09-09T02:31:22;100686.16;;;14.70;86.51
49030;BME280;43337;52.070;4.508;2022-09-09T02:33:55;100700.91;;;14.74;86.49
49030;BME280;43337;52.070;4.508;2022-09-09T02:36:23;100725.53;;;14.90;86.74
49030;BME280;43337;52.070;4.508;2022-09-09T02:38:49;100696.47;;;14.74;86.60
49030;BME280;43337;52.070;4.508;2022-09-09T02:41:25;100691.16;;;14.74;86.54
49030;BME280;43337;52.070;4.508;2022-09-09T02:43:54;100730.63;;;14.93;86.50
49030;BME280;43337;52.070;4.508;2022-09-09T02:49:14;100730.81;;;14.90;86.60
49030;BME280;43337;52.070;4.508;2022-09-09T02:52:05;100705.84;;;14.80;86.50
49030;BME280;43337;52.070;4.508;2022-09-09T02:54:39;100691.66;;;14.67;86.46
49030;BME280;43337;52.070;4.508;2022-09-09T02:57:25;100722.22;;;14.86;86.45
49030;BME280;43337;52.070;4.508;2022-09-09T02:59:53;100719.66;;;14.85;86.49
49030;BME280;43337;52.070;4.508;2022-09-09T03:02:20;100710.28;;;14.79;86.45
49030;BME280;43337;52.070;4.508;2022-09-09T03:04:45;100691.81;;;14.63;86.43
49030;BME280;43337;52.070;4.508;2022-09-09T03:07:16;100723.06;;;14.87;86.57
49030;BME280;43337;52.070;4.508;2022-09-09T03:09:42;100707.44;;;14.82;86.65
49030;BME280;43337;52.070;4.508;2022-09-09T03:12:07;100708.41;;;14.81;86.53
49030;BME280;43337;52.070;4.508;2022-09-09T03:14:33;100692.88;;;14.75;86.61
49030;BME280;43337;52.070;4.508;2022-09-09T03:16:58;100696.84;;;14.82;86.73
49030;BME280;43337;52.070;4.508;2022-09-09T03:19:26;100709.72;;;14.88;86.37
49030;BME280;43337;52.070;4.508;2022-09-09T03:21:53;100673.00;;;14.68;86.50
49030;BME280;43337;52.070;4.508;2022-09-09T03:24:18;100709.91;;;14.85;86.31
49030;BME280;43337;52.070;4.508;2022-09-09T03:26:44;100691.06;;;14.76;86.43
49030;BME280;43337;52.070;4.508;2022-09-09T03:29:11;100712.38;;;14.88;86.38
49030;BME280;43337;52.070;4.508;2022-09-09T03:31:37;100679.91;;;14.71;86.38
49030;BME280;43337;52.070;4.508;2022-09-09T03:34:03;100686.66;;;14.76;86.34
49030;BME280;43337;52.070;4.508;2022-09-09T03:36:28;100661.84;;;14.63;86.33
49030;BME280;43337;52.070;4.508;2022-09-09T03:38:54;100709.63;;;14.90;86.19
49030;BME280;43337;52.070;4.508;2022-09-09T03:41:21;100700.72;;;14.91;86.07
49030;BME280;43337;52.070;4.508;2022-09-09T03:43:51;100696.75;;;14.84;85.91
49030;BME280;43337;52.070;4.508;2022-09-09T03:46:18;100697.69;;;14.83;86.10
49030;BME280;43337;52.070;4.508;2022-09-09T03:48:43;100707.91;;;14.89;85.83
49030;BME280;43337;52.070;4.508;2022-09-09T03:51:09;100698.28;;;14.88;85.93
49030;BME280;43337;52.070;4.508;2022-09-09T03:53:36;100655.13;;;14.57;85.81
49030;BME280;43337;52.070;4.508;2022-09-09T03:56:04;100707.91;;;14.89;85.69
49030;BME280;43337;52.070;4.508;2022-09-09T03:58:32;100696.84;;;14.82;85.79
49030;BME280;43337;52.070;4.508;2022-09-09T04:01:07;100707.91;;;14.89;85.75
49030;BME280;43337;52.070;4.508;2022-09-09T04:03:36;100672.91;;;14.70;85.78
49030;BME280;43337;52.070;4.508;2022-09-09T04:06:03;100691.72;;;14.79;85.93
49030;BME280;43337;52.070;4.508;2022-09-09T04:08:29;100672.63;;;14.74;85.83
49030;BME280;43337;52.070;4.508;2022-09-09T04:10:58;100697.50;;;14.86;85.73
49030;BME280;43337;52.070;4.508;2022-09-09T04:13:25;100700.25;;;14.84;85.88
49030;BME280;43337;52.070;4.508;2022-09-09T04:15:56;100688.88;;;14.82;85.67
49030;BME280;43337;52.070;4.508;2022-09-09T04:18:22;100682.94;;;14.79;85.68
49030;BME280;43337;52.070;4.508;2022-09-09T04:20:49;100679.25;;;14.81;85.71
49030;BME280;43337;52.070;4.508;2022-09-09T04:23:16;100686.25;;;14.82;85.72
49030;BME280;43337;52.070;4.508;2022-09-09T04:25:51;100675.81;;;14.79;85.84
49030;BME280;43337;52.070;4.508;2022-09-09T04:28:19;100659.66;;;14.70;85.88
49030;BME280;43337;52.070;4.508;2022-09-09T04:30:45;100646.78;;;14.63;85.91
49030;BME280;43337;52.070;4.508;2022-09-09T04:33:11;100643.56;;;14.58;85.95
49030;BME280;43337;52.070;4.508;2022-09-09T04:35:37;100657.38;;;14.63;85.97
49030;BME280;43337;52.070;4.508;2022-09-09T04:38:05;100670.06;;;14.73;85.92
49030;BME280;43337;52.070;4.508;2022-09-09T04:40:33;100660.03;;;14.63;85.99
49030;BME280;43337;52.070;4.508;2022-09-09T04:43:02;100653.81;;;14.64;86.10
49030;BME280;43337;52.070;4.508;2022-09-09T04:45:30;100652.38;;;14.59;85.96
49030;BME280;43337;52.070;4.508;2022-09-09T04:47:56;100638.47;;;14.55;86.08
49030;BME280;43337;52.070;4.508;2022-09-09T04:50:21;100635.31;;;14.49;86.31
49030;BME280;43337;52.070;4.508;2022-09-09T04:52:47;100659.75;;;14.68;86.17
49030;BME280;43337;52.070;4.508;2022-09-09T04:55:12;100618.97;;;14.42;85.91
49030;BME280;43337;52.070;4.508;2022-09-09T04:57:39;100668.56;;;14.69;86.01
49030;BME280;43337;52.070;4.508;2022-09-09T05:00:05;100651.22;;;14.63;86.16
49030;BME280;43337;52.070;4.508;2022-09-09T05:02:31;100661.66;;;14.66;86.18
49030;BME280;43337;52.070;4.508;2022-09-09T05:04:57;100667.06;;;14.64;86.05
49030;BME280;43337;52.070;4.508;2022-09-09T05:07:23;100628.59;;;14.43;86.21
49030;BME280;43337;52.070;4.508;2022-09-09T05:09:49;100641.66;;;14.46;86.06
49030;BME280;43337;52.070;4.508;2022-09-09T05:12:15;100661.34;;;14.56;86.08
49030;BME280;43337;52.070;4.508;2022-09-09T05:14:42;100654.47;;;14.54;86.22
49030;BME280;43337;52.070;4.508;2022-09-09T05:17:08;100639.72;;;14.50;86.28
49030;BME280;43337;52.070;4.508;2022-09-09T05:19:33;100652.66;;;14.54;85.88
49030;BME280;43337;52.070;4.508;2022-09-09T05:21:58;100640.59;;;14.49;86.29
49030;BME280;43337;52.070;4.508;2022-09-09T05:24:24;100634.56;;;14.47;86.44
49030;BME280;43337;52.070;4.508;2022-09-09T05:26:49;100650.00;;;14.54;86.54
49030;BME280;43337;52.070;4.508;2022-09-09T05:29:15;100639.94;;;14.45;86.27
49030;BME280;43337;52.070;4.508;2022-09-09T05:31:42;100648.31;;;14.53;86.58
49030;BME280;43337;52.070;4.508;2022-09-09T05:34:07;100653.41;;;14.56;86.46
49030;BME280;43337;52.070;4.508;2022-09-09T05:36:33;100647.38;;;14.54;86.53
49030;BME280;43337;52.070;4.508;2022-09-09T05:38:58;100642.16;;;14.53;86.32
49030;BME280;43337;52.070;4.508;2022-09-09T05:41:23;100604.38;;;14.35;86.68
49030;BME280;43337;52.070;4.508;2022-09-09T05:43:49;100655.41;;;14.67;86.50
49030;BME280;43337;52.070;4.508;2022-09-09T05:46:19;100655.31;;;14.69;86.60
49030;BME280;43337;52.070;4.508;2022-09-09T05:48:46;100647.38;;;14.69;86.90
49030;BME280;43337;52.070;4.508;2022-09-09T05:51:15;100634.69;;;14.59;86.65
49030;BME280;43337;52.070;4.508;2022-09-09T05:53:43;100625.22;;;14.55;86.52
49030;BME280;43337;52.070;4.508;2022-09-09T05:56:20;100640.72;;;14.76;86.56
49030;BME280;43337;52.070;4.508;2022-09-09T05:58:48;100650.09;;;14.81;86.59
49030;BME280;43337;52.070;4.508;2022-09-09T06:01:16;100639.78;;;14.77;86.47
49030;BME280;43337;52.070;4.508;2022-09-09T06:03:43;100672.78;;;15.00;86.42
49030;BME280;43337;52.070;4.508;2022-09-09T06:06:12;100670.78;;;15.03;86.38
49030;BME280;43337;52.070;4.508;2022-09-09T06:08:39;100666.53;;;15.01;86.37
49030;BME280;43337;52.070;4.508;2022-09-09T06:11:07;100633.03;;;14.85;86.45
49030;BME280;43337;52.070;4.508;2022-09-09T06:13:33;100635.38;;;14.90;86.20
49030;BME280;43337;52.070;4.508;2022-09-09T06:16:00;100620.16;;;14.79;86.20
49030;BME280;43337;52.070;4.508;2022-09-09T06:18:26;100671.88;;;15.13;86.18
49030;BME280;43337;52.070;4.508;2022-09-09T06:23:20;100638.41;;;14.98;86.03
49030;BME280;43337;52.070;4.508;2022-09-09T06:25:46;100633.03;;;15.00;86.05
49030;BME280;43337;52.070;4.508;2022-09-09T06:28:11;100648.97;;;15.12;85.87
49030;BME280;43337;52.070;4.508;2022-09-09T06:30:37;100656.25;;;15.23;85.83
49030;BME280;43337;52.070;4.508;2022-09-09T06:33:03;100672.50;;;15.31;85.71
49030;BME280;43337;52.070;4.508;2022-09-09T06:35:29;100667.22;;;15.31;85.73
49030;BME280;43337;52.070;4.508;2022-09-09T06:37:54;100644.44;;;15.14;85.53
49030;BME280;43337;52.070;4.508;2022-09-09T06:40:20;100632.09;;;15.13;85.30
49030;BME280;43337;52.070;4.508;2022-09-09T06:42:45;100673.81;;;15.38;85.21
49030;BME280;43337;52.070;4.508;2022-09-09T06:45:10;100672.22;;;15.36;85.06
49030;BME280;43337;52.070;4.508;2022-09-09T06:47:36;100649.25;;;15.22;84.94
49030;BME280;43337;52.070;4.508;2022-09-09T06:50:01;100647.22;;;15.26;85.06
49030;BME280;43337;52.070;4.508;2022-09-09T06:52:27;100670.66;;;15.46;85.23
49030;BME280;43337;52.070;4.508;2022-09-09T06:54:53;100623.78;;;15.20;85.10
49030;BME280;43337;52.070;4.508;2022-09-09T06:57:18;100645.16;;;15.31;85.31
49030;BME280;43337;52.070;4.508;2022-09-09T06:59:44;100671.41;;;15.48;85.16
49030;BME280;43337;52.070;4.508;2022-09-09T07:02:09;100666.22;;;15.47;84.95
49030;BME280;43337;52.070;4.508;2022-09-09T07:04:35;100664.28;;;15.49;84.95
49030;BME280;43337;52.070;4.508;2022-09-09T07:07:02;100640.50;;;15.34;84.80
49030;BME280;43337;52.070;4.508;2022-09-09T07:09:27;100628.47;;;15.29;84.64
49030;BME280;43337;52.070;4.508;2022-09-09T07:11:54;100663.78;;;15.56;84.78
49030;BME280;43337;52.070;4.508;2022-09-09T07:14:20;100657.75;;;15.54;84.86
49030;BME280;43337;52.070;4.508;2022-09-09T07:16:46;100671.19;;;15.66;84.69
49030;BME280;43337;52.070;4.508;2022-09-09T07:19:12;100620.56;;;15.42;84.62
49030;BME280;43337;52.070;4.508;2022-09-09T07:21:38;100668.41;;;15.67;84.67
49030;BME280;43337;52.070;4.508;2022-09-09T07:24:05;100660.25;;;15.70;84.55
49030;BME280;43337;52.070;4.508;2022-09-09T07:26:33;100667.56;;;15.67;84.13
49030;BME280;43337;52.070;4.508;2022-09-09T07:28:59;100661.94;;;15.71;83.96
49030;BME280;43337;52.070;4.508;2022-09-09T07:31:29;100666.34;;;15.72;84.19
49030;BME280;43337;52.070;4.508;2022-09-09T07:33:58;100661.88;;;15.73;84.32
49030;BME280;43337;52.070;4.508;2022-09-09T07:36:45;100668.03;;;15.73;84.08
49030;BME280;43337;52.070;4.508;2022-09-09T07:39:13;100630.44;;;15.52;84.07
49030;BME280;43337;52.070;4.508;2022-09-09T07:44:16;100683.75;;;15.76;84.00
49030;BME280;43337;52.070;4.508;2022-09-09T07:46:42;100668.09;;;15.72;83.95
49030;BME280;43337;52.070;4.508;2022-09-09T07:49:09;100665.56;;;15.70;84.00
49030;BME280;43337;52.070;4.508;2022-09-09T07:51:41;100676.00;;;15.73;84.18
49030;BME280;43337;52.070;4.508;2022-09-09T07:54:10;100663.97;;;15.68;83.91
49030;BME280;43337;52.070;4.508;2022-09-09T07:56:37;100678.34;;;15.78;83.83
49030;BME280;43337;52.070;4.508;2022-09-09T07:59:03;100661.09;;;15.71;83.86
49030;BME280;43337;52.070;4.508;2022-09-09T08:01:34;100653.47;;;15.66;83.90
49030;BME280;43337;52.070;4.508;2022-09-09T08:04:07;100675.47;;;15.81;83.86
49030;BME280;43337;52.070;4.508;2022-09-09T08:06:41;100678.88;;;15.83;83.85
49030;BME280;43337;52.070;4.508;2022-09-09T08:09:08;100675.28;;;15.84;83.79
49030;BME280;43337;52.070;4.508;2022-09-09T08:11:34;100674.19;;;15.86;83.40
49030;BME280;43337;52.070;4.508;2022-09-09T08:14:02;100677.50;;;15.90;83.76
49030;BME280;43337;52.070;4.508;2022-09-09T08:16:32;100680.16;;;15.90;83.68
49030;BME280;43337;52.070;4.508;2022-09-09T08:18:58;100678.25;;;15.92;83.73
49030;BME280;43337;52.070;4.508;2022-09-09T08:21:27;100679.00;;;15.94;83.60
49030;BME280;43337;52.070;4.508;2022-09-09T08:23:53;100680.16;;;15.90;83.55
49030;BME280;43337;52.070;4.508;2022-09-09T08:26:25;100681.56;;;15.96;83.80
49030;BME280;43337;52.070;4.508;2022-09-09T08:28:54;100676.34;;;15.94;83.75
49030;BME280;43337;52.070;4.508;2022-09-09T08:31:23;100684.00;;;15.99;83.57
49030;BME280;43337;52.070;4.508;2022-09-09T08:33:48;100653.06;;;15.85;83.63
49030;BME280;43337;52.070;4.508;2022-09-09T08:36:19;100660.00;;;15.88;83.53
49030;BME280;43337;52.070;4.508;2022-09-09T08:38:49;100689.94;;;16.02;83.36
49030;BME280;43337;52.070;4.508;2022-09-09T08:55:24;100688.25;;;16.01;83.00
49030;BME280;43337;52.070;4.508;2022-09-09T08:57:54;100673.88;;;15.91;83.18
49030;BME280;43337;52.070;4.508;2022-09-09T09:00:21;100687.28;;;16.02;83.39
49030;BME280;43337;52.070;4.508;2022-09-09T09:11:23;100684.63;;;16.02;83.27
49030;BME280;43337;52.070;4.508;2022-09-09T09:13:56;100681.25;;;16.00;83.19
49030;BME280;43337;52.070;4.508;2022-09-09T09:16:33;100687.59;;;15.98;83.20
49030;BME280;43337;52.070;4.508;2022-09-09T09:19:00;100679.44;;;15.88;83.39
49030;BME280;43337;52.070;4.508;2022-09-09T09:21:41;100700.88;;;15.98;83.74
49030;BME280;43337;52.070;4.508;2022-09-09T09:24:16;100677.16;;;15.82;83.96
49030;BME280;43337;52.070;4.508;2022-09-09T09:26:43;100689.94;;;15.90;84.06
49030;BME280;43337;52.070;4.508;2022-09-09T09:29:14;100687.38;;;15.88;84.02
49030;BME280;43337;52.070;4.508;2022-09-09T09:31:46;100668.47;;;15.80;84.14
49030;BME280;43337;52.070;4.508;2022-09-09T09:34:14;100699.19;;;15.97;84.34
49030;BME280;43337;52.070;4.508;2022-09-09T09:36:42;100682.28;;;15.98;84.44
49030;BME280;43337;52.070;4.508;2022-09-09T09:39:10;100653.06;;;15.85;84.67
49030;BME280;43337;52.070;4.508;2022-09-09T09:41:41;100634.91;;;15.79;84.61
49030;BME280;43337;52.070;4.508;2022-09-09T09:44:30;100688.38;;;16.13;84.87
49030;BME280;43337;52.070;4.508;2022-09-09T09:47:25;100678.91;;;16.21;85.20
49030;BME280;43337;52.070;4.508;2022-09-09T09:49:59;100661.50;;;16.17;84.84
49030;BME280;43337;52.070;4.508;2022-09-09T09:52:30;100669.69;;;16.27;84.79
49030;BME280;43337;52.070;4.508;2022-09-09T09:54:57;100687.00;;;16.32;84.78
49030;BME280;43337;52.070;4.508;2022-09-09T09:57:26;100642.06;;;16.17;84.88
49030;BME280;43337;52.070;4.508;2022-09-09T10:02:43;100669.56;;;16.41;85.09
49030;BME280;43337;52.070;4.508;2022-09-09T10:05:19;100675.97;;;16.51;84.76
49030;BME280;43337;52.070;4.508;2022-09-09T10:07:46;100660.75;;;16.53;85.00
49030;BME280;43337;52.070;4.508;2022-09-09T10:10:24;100675.72;;;16.67;84.80
49030;BME280;43337;52.070;4.508;2022-09-09T10:26:44;100679.78;;;16.47;84.86
49030;BME280;43337;52.070;4.508;2022-09-09T10:32:24;100681.81;;;16.31;85.28
49030;BME280;43337;52.070;4.508;2022-09-09T10:35:14;100690.19;;;16.25;85.39
49030;BME280;43337;52.070;4.508;2022-09-09T10:55:20;100673.59;;;16.59;86.99
49030;BME280;43337;52.070;4.508;2022-09-09T10:57:52;100669.34;;;16.70;86.87
49030;BME280;43337;52.070;4.508;2022-09-09T11:00:36;100654.66;;;16.64;86.65
49030;BME280;43337;52.070;4.508;2022-09-09T11:03:04;100649.06;;;16.69;86.75
49030;BME280;43337;52.070;4.508;2022-09-09T11:05:41;100680.19;;;16.92;86.61
49030;BME280;43337;52.070;4.508;2022-09-09T11:10:40;100688.47;;;17.00;86.37
49030;BME280;43337;52.070;4.508;2022-09-09T11:13:14;100673.88;;;17.06;86.24
49030;BME280;43337;52.070;4.508;2022-09-09T11:15:50;100631.06;;;16.85;86.26
49030;BME280;43337;52.070;4.508;2022-09-09T11:18:21;100670.16;;;17.08;86.19
49030;BME280;43337;52.070;4.508;2022-09-09T11:20:59;100674.56;;;17.21;86.32
49030;BME280;43337;52.070;4.508;2022-09-09T11:23:53;100669.03;;;17.24;86.00
49030;BME280;43337;52.070;4.508;2022-09-09T11:26:30;100671.97;;;17.32;85.98
49030;BME280;43337;52.070;4.508;2022-09-09T11:31:44;100647.63;;;17.25;85.32
49030;BME280;43337;52.070;4.508;2022-09-09T11:37:36;100672.25;;;17.40;nan
49030;BME280;43337;52.070;4.508;2022-09-09T11:40:17;100675.38;;;17.34;84.55
49030;BME280;43337;52.070;4.508;2022-09-09T11:42:45;100681.56;;;17.35;84.26
49030;BME280;43337;52.070;4.508;2022-09-09T11:45:25;100665.63;;;17.22;84.18
49030;BME280;43337;52.070;4.508;2022-09-09T11:48:22;100670.00;;;17.23;84.24
49030;BME280;43337;52.070;4.508;2022-09-09T11:50:58;100681.22;;;17.15;84.23
49030;BME280;43337;52.070;4.508;2022-09-09T11:53:24;100677.06;;;17.11;84.28
49030;BME280;43337;52.070;4.508;2022-09-09T11:56:06;100682.47;;;17.09;84.55
49030;BME280;43337;52.070;4.508;2022-09-09T11:58:43;100679.19;;;17.06;84.68
49030;BME280;43337;52.070;4.508;2022-09-09T12:01:30;100682.94;;;17.03;84.91
49030;BME280;43337;52.070;4.508;2022-09-09T12:04:26;100661.91;;;16.88;85.10
49030;BME280;43337;52.070;4.508;2022-09-09T12:07:22;100680.06;;;16.94;85.06
49030;BME280;43337;52.070;4.508;2022-09-09T12:12:35;100663.94;;;16.84;85.48
49030;BME280;43337;52.070;4.508;2022-09-09T12:17:59;100683.78;;;17.04;85.80
49030;BME280;43337;52.070;4.508;2022-09-09T12:28:11;100683.94;;;17.14;86.64
49030;BME280;43337;52.070;4.508;2022-09-09T12:33:11;100655.94;;;16.97;86.83
49030;BME280;43337;52.070;4.508;2022-09-09T12:35:42;100693.09;;;17.22;86.90
49030;BME280;43337;52.070;4.508;2022-09-09T12:38:17;100667.16;;;17.13;86.90
49030;BME280;43337;52.070;4.508;2022-09-09T12:40:56;100689.69;;;17.20;86.73
49030;BME280;43337;52.070;4.508;2022-09-09T12:43:24;100702.22;;;17.31;86.77
49030;BME280;43337;52.070;4.508;2022-09-09T12:45:56;100703.81;;;17.33;86.42
49030;BME280;43337;52.070;4.508;2022-09-09T12:48:38;100703.91;;;17.32;86.50
49030;BME280;43337;52.070;4.508;2022-09-09T12:51:18;100704.53;;;17.36;86.51
49030;BME280;43337;52.070;4.508;2022-09-09T12:53:44;100696.16;;;17.29;86.37
49030;BME280;43337;52.070;4.508;2022-09-09T12:56:20;100697.31;;;17.38;86.30
49030;BME280;43337;52.070;4.508;2022-09-09T12:58:49;100692.53;;;17.30;85.82
49030;BME280;43337;52.070;4.508;2022-09-09T13:01:25;100683.69;;;17.29;85.71
49030;BME280;43337;52.070;4.508;2022-09-09T13:03:52;100654.13;;;16.97;85.77
49030;BME280;43337;52.070;4.508;2022-09-09T13:06:27;100694.47;;;17.28;85.38
49030;BME280;43337;52.070;4.508;2022-09-09T13:08:53;100688.63;;;17.23;85.68
49030;BME280;43337;52.070;4.508;2022-09-09T13:11:44;100659.63;;;17.07;85.75
49030;BME280;43337;52.070;4.508;2022-09-09T13:14:31;100693.81;;;17.24;85.56
49030;BME280;43337;52.070;4.508;2022-09-09T13:17:01;100709.56;;;17.27;85.69
49030;BME280;43337;52.070;4.508;2022-09-09T13:19:36;100689.13;;;17.28;85.71
49030;BME280;43337;52.070;4.508;2022-09-09T13:22:13;100681.72;;;17.20;85.73
49030;BME280;43337;52.070;4.508;2022-09-09T13:24:39;100649.94;;;17.06;85.75
49030;BME280;43337;52.070;4.508;2022-09-09T13:27:23;100704.94;;;17.42;85.61
49030;BME280;43337;52.070;4.508;2022-09-09T13:29:52;100708.34;;;17.44;85.71
49030;BME280;43337;52.070;4.508;2022-09-09T13:32:23;100716.00;;;17.49;85.53
49030;BME280;43337;52.070;4.508;2022-09-09T13:34:56;100697.81;;;17.43;85.31
49030;BME280;43337;52.070;4.508;2022-09-09T13:37:23;100712.38;;;17.50;85.44
49030;BME280;43337;52.070;4.508;2022-09-09T13:39:53;100700.81;;;17.38;85.43
49030;BME280;43337;52.070;4.508;2022-09-09T13:42:25;100714.63;;;17.43;85.72
49030;BME280;43337;52.070;4.508;2022-09-09T13:44:52;100672.59;;;17.12;85.82
49030;BME280;43337;52.070;4.508;2022-09-09T13:47:19;100713.72;;;17.31;85.71
49030;BME280;43337;52.070;4.508;2022-09-09T13:49:45;100697.03;;;17.17;85.87
49030;BME280;43337;52.070;4.508;2022-09-09T13:52:13;100683.81;;;16.91;85.68
49030;BME280;43337;52.070;4.508;2022-09-09T13:54:40;100691.94;;;16.77;85.35
49030;BME280;43337;52.070;4.508;2022-09-09T13:57:22;100716.78;;;16.89;84.87
49030;BME280;43337;52.070;4.508;2022-09-09T13:59:48;100720.41;;;16.75;85.09
49030;BME280;43337;52.070;4.508;2022-09-09T14:02:15;100713.06;;;16.66;84.94
49030;BME280;43337;52.070;4.508;2022-09-09T14:04:42;100698.69;;;16.55;85.14
49030;BME280;43337;52.070;4.508;2022-09-09T14:07:13;100705.09;;;16.53;85.43
49030;BME280;43337;52.070;4.508;2022-09-09T14:09:39;100668.00;;;16.26;85.62
49030;BME280;43337;52.070;4.508;2022-09-09T14:12:08;100667.38;;;16.22;86.14
49030;BME280;43337;52.070;4.508;2022-09-09T14:14:33;100690.84;;;16.28;86.21
49030;BME280;43337;52.070;4.508;2022-09-09T14:16:59;100642.38;;;15.99;86.23
49030;BME280;43337;52.070;4.508;2022-09-09T14:19:24;100699.44;;;16.32;86.76
49030;BME280;43337;52.070;4.508;2022-09-09T14:21:49;100686.81;;;16.23;87.31
49030;BME280;43337;52.070;4.508;2022-09-09T14:24:15;100679.78;;;16.22;87.23
49030;BME280;43337;52.070;4.508;2022-09-09T14:26:41;100689.56;;;16.34;87.54
49030;BME280;43337;52.070;4.508;2022-09-09T14:29:07;100694.44;;;16.40;88.33
49030;BME280;43337;52.070;4.508;2022-09-09T14:31:32;100702.75;;;16.48;88.18
49030;BME280;43337;52.070;4.508;2022-09-09T14:33:58;100686.91;;;16.47;88.26
49030;BME280;43337;52.070;4.508;2022-09-09T14:36:24;100702.13;;;16.57;88.29
49030;BME280;43337;52.070;4.508;2022-09-09T14:38:50;100708.47;;;16.68;88.70
49030;BME280;43337;52.070;4.508;2022-09-09T14:41:17;100661.31;;;16.46;88.38
49030;BME280;43337;52.070;4.508;2022-09-09T14:43:43;100675.72;;;16.67;88.82
49030;BME280;43337;52.070;4.508;2022-09-09T14:46:14;100706.03;;;17.03;89.03
49030;BME280;43337;52.070;4.508;2022-09-09T14:48:40;100716.81;;;17.25;89.09
49030;BME280;43337;52.070;4.508;2022-09-09T14:51:12;100696.91;;;17.31;89.03
49030;BME280;43337;52.070;4.508;2022-09-09T14:53:40;100703.63;;;17.48;88.78
49030;BME280;43337;52.070;4.508;2022-09-09T14:56:14;100724.53;;;17.78;88.57
49030;BME280;43337;52.070;4.508;2022-09-09T14:58:42;100728.31;;;17.87;88.40
49030;BME280;43337;52.070;4.508;2022-09-09T15:01:09;100730.66;;;17.91;87.94
49030;BME280;43337;52.070;4.508;2022-09-09T15:03:36;100705.75;;;17.79;87.22
49030;BME280;43337;52.070;4.508;2022-09-09T15:06:12;100741.31;;;17.91;87.15
49030;BME280;43337;52.070;4.508;2022-09-09T15:08:40;100737.03;;;17.89;86.76
49030;BME280;43337;52.070;4.508;2022-09-09T15:11:06;100698.91;;;17.64;86.68
49030;BME280;43337;52.070;4.508;2022-09-09T15:13:33;100730.47;;;17.81;85.96